KMOT

Minot International Airport

Minot, North Dakota, USA
KMOT 200107Z 2001/2024 29018G25KT P6SM SKC FM200300 33014KT P6SM SCT250 FM201200 30006KT P6SM SKC
Issued Valid From Valid To
Oct-20 @ 01:07 UTC
(an hour ago)
Oct-20 @ 01:00 UTC
(an hour ago)
Oct-21 @ 00:00 UTC
(in 22 hours)
Oct-20 @ 01:00 to Oct-20 @ 03:00
KMOT 200107Z 2001/2024 29018G25KT P6SM SKC
Wind Visibility Clouds
290° at 18 knots
 Gusting to 25 knots
Greater than 6 miles
  • Clear skies
From Oct-20 @ 03:00 to Oct-20 @ 12:00
FM200300 33014KT P6SM SCT250
Wind Visibility Clouds
330° at 14 knots Greater than 6 miles
  • Scattered at 25,000' AGL
From Oct-20 @ 12:00 to Oct-21 @ 00:00
FM201200 30006KT P6SM SKC
Wind Visibility Clouds
300° at 6 knots Greater than 6 miles
  • Clear skies
KMOT 200107Z 2001/2024 29018G25KT P6SM SKC FM200300 33014KT P6SM SCT250 FM201200 30006KT P6SM SKC
Issued Oct-20 @ 01:07 UTC
(an hour ago)
Valid From Oct-20 @ 01:00 UTC
(an hour ago)
Valid To Oct-21 @ 00:00 UTC
(in 22 hours)
Oct-20 @ 01:00 - Oct-20 @ 03:00
Wind Visibility
290° at 18 knots
 Gusting to 25 knots
Greater than 6 miles
Clouds
  • Clear skies
From Oct-20 @ 03:00 - Oct-20 @ 12:00
Wind Visibility
330° at 14 knots Greater than 6 miles
Clouds
  • Scattered at 25,000' AGL
From Oct-20 @ 12:00 - Oct-21 @ 00:00
Wind Visibility
300° at 6 knots Greater than 6 miles
Clouds
  • Clear skies